createdAt,value
2019-05-21T00:01:47.597Z,15.06
2019-05-21T00:04:27.867Z,15.07
2019-05-21T00:06:51.193Z,15.06
2019-05-21T00:09:22.005Z,14.93
2019-05-21T00:11:52.952Z,15.01
2019-05-21T00:14:23.704Z,14.95
2019-05-21T00:16:55.105Z,14.90
2019-05-21T00:19:25.640Z,14.78
2019-05-21T00:21:56.314Z,14.90
2019-05-21T00:24:26.788Z,14.61
2019-05-21T00:26:57.460Z,14.73
2019-05-21T00:30:03.956Z,14.77
2019-05-21T00:33:10.674Z,14.72
2019-05-21T00:36:18.021Z,14.82
2019-05-21T00:39:25.214Z,14.80
2019-05-21T00:42:00.977Z,14.87
2019-05-21T00:44:34.109Z,14.74
2019-05-21T00:47:05.659Z,14.67
2019-05-21T00:49:36.533Z,14.68
2019-05-21T00:52:09.025Z,14.67
2019-05-21T00:54:40.011Z,14.64
2019-05-21T00:57:11.353Z,14.67
2019-05-21T00:59:42.530Z,14.70
2019-05-21T01:02:13.222Z,14.72
2019-05-21T01:04:59.226Z,14.78
2019-05-21T01:07:16.502Z,14.64
2019-05-21T01:09:48.444Z,14.66
2019-05-21T01:12:19.198Z,14.70
2019-05-21T01:14:49.960Z,14.65
2019-05-21T01:17:20.808Z,14.73
2019-05-21T01:19:51.594Z,14.52
2019-05-21T01:22:22.196Z,14.59
2019-05-21T01:24:52.664Z,14.60
2019-05-21T01:27:23.176Z,14.52
2019-05-21T01:29:54.672Z,14.52
2019-05-21T01:32:25.651Z,14.55
2019-05-21T01:34:56.121Z,14.39
2019-05-21T01:37:26.781Z,14.37
2019-05-21T01:39:57.248Z,14.52
2019-05-21T01:42:27.779Z,14.51
2019-05-21T01:44:58.267Z,14.47
2019-05-21T01:47:29.091Z,14.32
2019-05-21T01:49:59.573Z,14.22
2019-05-21T01:52:30.168Z,14.10
2019-05-21T01:55:00.632Z,14.15
2019-05-21T01:57:32.448Z,14.34
2019-05-21T02:00:03.348Z,14.33
2019-05-21T02:02:35.182Z,14.27
2019-05-21T02:05:06.145Z,14.27
2019-05-21T02:07:38.257Z,14.26
2019-05-21T02:10:10.061Z,14.27
2019-05-21T02:12:40.890Z,14.20
2019-05-21T02:15:12.087Z,14.30
2019-05-21T02:17:43.891Z,14.39
2019-05-21T02:20:15.093Z,14.30
2019-05-21T02:22:46.156Z,14.24
2019-05-21T02:25:17.628Z,14.05
2019-05-21T02:27:48.410Z,14.32
2019-05-21T02:30:19.451Z,14.11
2019-05-21T02:32:50.195Z,14.21
2019-05-21T02:35:21.090Z,14.23
2019-05-21T02:37:51.876Z,14.19
2019-05-21T02:40:23.567Z,14.23
2019-05-21T02:42:54.767Z,14.25
2019-05-21T02:45:25.658Z,13.85
2019-05-21T02:47:56.466Z,13.93
2019-05-21T02:50:27.328Z,13.99
2019-05-21T02:52:58.027Z,14.06
2019-05-21T02:55:28.803Z,13.91
2019-05-21T02:57:59.811Z,14.00
2019-05-21T03:00:55.791Z,13.79
2019-05-21T03:03:28.529Z,13.91
2019-05-21T03:06:13.066Z,13.97
2019-05-21T03:08:31.232Z,14.09
2019-05-21T03:11:01.727Z,14.13
2019-05-21T03:13:32.335Z,14.09
2019-05-21T03:16:02.902Z,13.87
2019-05-21T03:18:33.422Z,14.00
2019-05-21T03:21:03.885Z,13.83
2019-05-21T03:23:34.867Z,14.13
2019-05-21T03:26:05.664Z,14.04
2019-05-21T03:28:36.466Z,14.10
2019-05-21T03:31:07.273Z,14.09
2019-05-21T03:33:38.276Z,14.02
2019-05-21T03:36:09.147Z,14.06
2019-05-21T03:38:39.918Z,13.81
2019-05-21T03:41:10.719Z,14.03
2019-05-21T03:43:41.514Z,14.17
2019-05-21T03:46:12.259Z,14.01
2019-05-21T03:48:43.650Z,13.99
2019-05-21T03:51:14.436Z,14.01
2019-05-21T03:53:45.243Z,13.90
2019-05-21T03:56:16.052Z,13.91
2019-05-21T03:58:47.060Z,14.05
2019-05-21T04:01:17.922Z,13.79
2019-05-21T04:03:48.688Z,14.00
2019-05-21T04:06:19.591Z,14.11
2019-05-21T04:08:50.557Z,13.85
2019-05-21T04:11:21.343Z,13.95
2019-05-21T04:13:53.319Z,13.94
2019-05-21T04:16:59.142Z,13.83
2019-05-21T04:19:33.497Z,13.88
2019-05-21T04:22:05.922Z,13.90
2019-05-21T04:24:37.019Z,13.94
2019-05-21T04:27:07.658Z,14.08
2019-05-21T04:29:38.473Z,13.92
2019-05-21T04:32:08.933Z,13.78
2019-05-21T04:34:39.699Z,13.80
2019-05-21T04:37:11.882Z,13.82
2019-05-21T04:39:42.405Z,13.93
2019-05-21T04:42:12.854Z,13.88
2019-05-21T04:44:43.469Z,13.99
2019-05-21T04:47:13.935Z,13.85
2019-05-21T04:49:45.068Z,13.78
2019-05-21T04:52:15.542Z,13.90
2019-05-21T04:54:46.377Z,13.76
2019-05-21T04:57:17.180Z,13.86
2019-05-21T04:59:47.946Z,13.80
2019-05-21T05:02:18.795Z,13.68
2019-05-21T05:04:49.689Z,13.82
2019-05-21T05:07:28.247Z,13.76
2019-05-21T05:09:53.000Z,13.83
2019-05-21T05:12:23.699Z,14.08
2019-05-21T05:14:54.476Z,13.91
2019-05-21T05:17:25.368Z,13.98
2019-05-21T05:19:56.278Z,14.02
2019-05-21T05:22:27.109Z,13.96
2019-05-21T05:24:57.813Z,13.95
2019-05-21T05:27:28.811Z,13.83
2019-05-21T05:29:59.645Z,13.93
2019-05-21T05:32:30.489Z,13.89
2019-05-21T05:35:01.325Z,13.84
2019-05-21T05:37:43.377Z,13.84
2019-05-21T05:40:04.568Z,13.91
2019-05-21T05:42:35.072Z,13.84
2019-05-21T05:45:06.378Z,13.99
2019-05-21T05:47:36.972Z,13.98
2019-05-21T05:50:09.992Z,13.97
2019-05-21T05:52:40.466Z,14.04
2019-05-21T05:55:11.393Z,14.07
2019-05-21T05:57:41.903Z,14.10
2019-05-21T06:00:14.168Z,13.81
2019-05-21T06:02:44.692Z,13.92
2019-05-21T06:05:16.567Z,13.85
2019-05-21T06:07:59.405Z,13.92
2019-05-21T06:10:19.429Z,13.81
2019-05-21T06:12:50.964Z,13.85
2019-05-21T06:15:21.820Z,13.95
2019-05-21T06:17:52.615Z,13.88
2019-05-21T06:20:23.625Z,13.95
2019-05-21T06:22:54.521Z,13.97
2019-05-21T06:25:25.633Z,13.86
2019-05-21T06:27:56.470Z,13.80
2019-05-21T06:30:27.194Z,13.79
2019-05-21T06:32:58.033Z,14.01
2019-05-21T06:35:28.779Z,13.97
2019-05-21T06:38:16.115Z,14.07
2019-05-21T06:40:31.809Z,13.86
2019-05-21T06:43:02.710Z,13.99
2019-05-21T06:45:33.582Z,14.09
2019-05-21T06:48:04.555Z,14.00
2019-05-21T06:50:37.618Z,13.91
2019-05-21T06:53:07.854Z,14.18
2019-05-21T06:55:38.752Z,14.19
2019-05-21T06:58:09.814Z,14.19
2019-05-21T07:00:40.696Z,14.17
2019-05-21T07:03:11.964Z,14.27
2019-05-21T07:05:57.686Z,14.25
2019-05-21T07:08:15.309Z,14.23
2019-05-21T07:10:46.180Z,14.17
2019-05-21T07:13:17.118Z,14.01
2019-05-21T07:15:47.894Z,14.08
2019-05-21T07:18:18.648Z,14.12
2019-05-21T07:20:49.255Z,14.21
2019-05-21T07:23:20.016Z,14.22
2019-05-21T07:25:50.924Z,14.29
2019-05-21T07:28:21.753Z,14.18
2019-05-21T07:30:52.422Z,14.34
2019-05-21T07:33:23.509Z,14.26
2019-05-21T07:35:54.171Z,14.48
2019-05-21T07:38:25.042Z,14.59
2019-05-21T07:40:56.260Z,14.52
2019-05-21T07:43:27.125Z,14.59
2019-05-21T07:45:58.009Z,14.65
2019-05-21T07:48:28.865Z,14.57
2019-05-21T07:50:59.876Z,14.52
2019-05-21T07:53:30.559Z,14.67
2019-05-21T07:56:01.137Z,14.61
2019-05-21T07:58:31.613Z,14.58
2019-05-21T08:01:02.242Z,14.65
2019-05-21T08:03:32.786Z,14.51
2019-05-21T08:06:03.291Z,14.52
2019-05-21T08:08:33.757Z,14.55
2019-05-21T08:11:04.707Z,14.43
2019-05-21T08:13:35.789Z,14.58
2019-05-21T08:16:06.609Z,14.56
2019-05-21T08:18:37.296Z,14.45
2019-05-21T08:21:08.131Z,14.59
2019-05-21T08:23:39.097Z,14.60
2019-05-21T08:26:09.806Z,14.58
2019-05-21T08:28:40.533Z,14.43
2019-05-21T08:31:11.634Z,14.34
2019-05-21T08:33:42.408Z,14.47
2019-05-21T08:36:13.385Z,14.72
2019-05-21T08:38:44.197Z,14.70
2019-05-21T08:41:15.457Z,14.65
2019-05-21T08:43:46.264Z,14.64
2019-05-21T08:46:17.146Z,14.67
2019-05-21T08:48:47.940Z,14.47
2019-05-21T08:51:18.709Z,14.60
2019-05-21T08:53:49.583Z,14.54
2019-05-21T08:56:20.055Z,14.65
2019-05-21T08:58:50.542Z,14.61
2019-05-21T09:01:21.135Z,14.52
2019-05-21T09:03:51.640Z,14.57
2019-05-21T09:06:22.128Z,14.39
2019-05-21T09:08:52.632Z,14.45
2019-05-21T09:11:23.104Z,14.61
2019-05-21T09:13:53.981Z,14.63
2019-05-21T09:16:24.892Z,14.68
2019-05-21T09:18:55.728Z,14.74
2019-05-21T09:21:26.616Z,14.63
2019-05-21T09:23:57.403Z,14.78
2019-05-21T09:26:28.372Z,14.71
2019-05-21T09:28:59.064Z,14.66
2019-05-21T09:31:29.933Z,14.71
2019-05-21T09:34:00.847Z,14.70
2019-05-21T09:36:31.716Z,14.85
2019-05-21T09:39:02.422Z,14.70
2019-05-21T09:41:34.933Z,14.49
2019-05-21T09:44:06.092Z,14.84
2019-05-21T09:46:37.092Z,14.94
2019-05-21T09:49:07.805Z,14.77
2019-05-21T09:51:38.574Z,14.85
2019-05-21T09:54:09.477Z,14.97
2019-05-21T09:56:40.280Z,14.90
2019-05-21T09:59:24.928Z,14.76
2019-05-21T10:01:58.131Z,14.79
2019-05-21T10:04:29.014Z,14.54
2019-05-21T10:07:00.062Z,14.72
2019-05-21T10:09:30.886Z,14.63
2019-05-21T10:12:01.628Z,14.91
2019-05-21T10:14:34.403Z,14.93
2019-05-21T10:17:05.571Z,14.95
2019-05-21T10:19:36.426Z,14.97
2019-05-21T10:22:07.412Z,14.99
2019-05-21T10:24:38.252Z,14.75
2019-05-21T10:27:09.169Z,14.90
2019-05-21T10:29:40.017Z,14.87
2019-05-21T10:32:10.886Z,15.05
2019-05-21T10:34:41.599Z,15.04
2019-05-21T10:37:12.548Z,15.20
2019-05-21T10:39:43.452Z,15.02
2019-05-21T10:42:14.222Z,15.01
2019-05-21T10:44:45.011Z,14.90
2019-05-21T10:47:16.551Z,15.05
2019-05-21T10:49:47.456Z,15.13
2019-05-21T10:52:18.246Z,15.18
2019-05-21T10:54:48.715Z,14.92
2019-05-21T10:57:19.299Z,15.00
2019-05-21T10:59:49.792Z,15.08
2019-05-21T11:02:29.598Z,15.08
2019-05-21T11:05:10.061Z,15.04
2019-05-21T11:07:40.837Z,15.08
2019-05-21T11:10:12.238Z,14.95
2019-05-21T11:12:42.984Z,14.92
2019-05-21T11:15:14.262Z,14.73
2019-05-21T11:17:53.747Z,14.98
2019-05-21T11:20:17.543Z,15.07
2019-05-21T11:22:48.373Z,15.07
2019-05-21T11:25:19.073Z,15.15
2019-05-21T11:27:49.994Z,15.25
2019-05-21T11:30:20.789Z,15.35
2019-05-21T11:32:51.585Z,15.54
2019-05-21T11:35:22.685Z,15.62
2019-05-21T11:37:53.631Z,15.80
2019-05-21T11:40:27.029Z,15.82
2019-05-21T11:42:57.910Z,15.82
2019-05-21T11:45:32.827Z,15.69
2019-05-21T11:48:02.244Z,15.60
2019-05-21T11:50:33.116Z,15.68
2019-05-21T11:53:04.931Z,15.72
2019-05-21T11:55:35.811Z,15.63
2019-05-21T11:58:06.640Z,15.71
2019-05-21T12:00:37.606Z,15.95
2019-05-21T12:03:08.457Z,16.09
2019-05-21T12:05:39.374Z,16.42
2019-05-21T12:08:10.057Z,16.54
2019-05-21T12:10:40.755Z,16.39
2019-05-21T12:13:11.745Z,16.41
2019-05-21T12:15:42.563Z,16.28
2019-05-21T12:18:13.447Z,15.93
2019-05-21T12:20:45.243Z,15.90
2019-05-21T12:23:15.944Z,16.05
2019-05-21T12:25:46.764Z,16.00
2019-05-21T12:28:17.519Z,15.72
2019-05-21T12:30:48.471Z,15.75
2019-05-21T12:33:19.174Z,15.75
2019-05-21T12:35:50.632Z,15.60
2019-05-21T12:38:21.431Z,15.49
2019-05-21T12:40:52.294Z,15.58
2019-05-21T12:43:23.157Z,15.71
2019-05-21T12:45:54.116Z,15.57
2019-05-21T12:48:24.971Z,15.55
2019-05-21T12:50:55.974Z,15.88
2019-05-21T12:53:26.748Z,15.92
2019-05-21T12:55:57.518Z,15.86
2019-05-21T12:58:28.476Z,15.99
2019-05-21T13:00:58.966Z,16.12
2019-05-21T13:03:29.470Z,16.08
2019-05-21T13:05:59.945Z,16.01
2019-05-21T13:08:30.456Z,16.24
2019-05-21T13:11:00.933Z,16.43
2019-05-21T13:13:31.536Z,16.48
2019-05-21T13:16:02.042Z,16.30
2019-05-21T13:18:32.565Z,16.17
2019-05-21T13:21:03.064Z,16.27
2019-05-21T13:23:33.560Z,16.17
2019-05-21T13:26:08.009Z,16.37
2019-05-21T13:28:37.289Z,16.48
2019-05-21T13:31:08.100Z,16.38
2019-05-21T13:33:38.913Z,16.27
2019-05-21T13:36:09.683Z,16.13
2019-05-21T13:38:40.489Z,16.24
2019-05-21T13:41:11.814Z,16.29
2019-05-21T13:43:42.930Z,16.41
2019-05-21T13:46:13.692Z,16.24
2019-05-21T13:48:46.955Z,16.26
2019-05-21T13:51:17.279Z,16.32
2019-05-21T13:53:48.009Z,16.19
2019-05-21T13:56:18.917Z,16.18
2019-05-21T13:58:49.893Z,16.16
2019-05-21T14:01:38.856Z,16.34
2019-05-21T14:03:54.248Z,16.36
2019-05-21T14:06:24.996Z,16.39
2019-05-21T14:08:55.757Z,16.30
2019-05-21T14:11:26.770Z,16.28
2019-05-21T14:13:57.633Z,16.17
2019-05-21T14:16:29.597Z,16.22
2019-05-21T14:19:00.405Z,16.23
2019-05-21T14:21:31.202Z,16.19
2019-05-21T14:24:02.037Z,16.36
2019-05-21T14:26:32.940Z,16.36
2019-05-21T14:29:03.607Z,16.27
2019-05-21T14:31:34.416Z,16.18
2019-05-21T14:34:05.449Z,16.16
2019-05-21T14:36:36.318Z,16.13
2019-05-21T14:39:12.364Z,16.00
2019-05-21T14:41:43.223Z,16.00
2019-05-21T14:44:14.020Z,16.02
2019-05-21T14:46:44.925Z,16.14
2019-05-21T14:49:15.695Z,16.28
2019-05-21T14:51:47.345Z,16.36
2019-05-21T14:54:26.711Z,16.32
2019-05-21T14:56:50.830Z,16.41
2019-05-21T14:59:21.501Z,16.46
2019-05-21T15:01:51.985Z,16.53
2019-05-21T15:04:22.752Z,16.53
2019-05-21T15:06:53.536Z,16.62
2019-05-21T15:09:24.042Z,16.46
2019-05-21T15:11:54.543Z,16.59
2019-05-21T15:14:25.080Z,16.66
2019-05-21T15:16:55.645Z,16.73
2019-05-21T15:19:27.135Z,16.75
2019-05-21T15:21:57.891Z,16.61
2019-05-21T15:24:28.366Z,16.64
2019-05-21T15:26:58.893Z,16.44
2019-05-21T15:29:29.384Z,16.55
2019-05-21T15:31:59.901Z,16.60
2019-05-21T15:34:30.384Z,16.64
2019-05-21T15:37:01.041Z,16.59
2019-05-21T15:39:31.629Z,16.56
2019-05-21T15:42:04.078Z,16.61
2019-05-21T15:44:35.151Z,16.58
2019-05-21T15:47:07.799Z,16.60
2019-05-21T15:49:38.757Z,16.58
2019-05-21T15:52:09.641Z,16.59
2019-05-21T15:54:40.660Z,16.55
2019-05-21T15:57:13.712Z,16.51
2019-05-21T15:59:44.855Z,16.43
2019-05-21T16:02:15.973Z,16.42
2019-05-21T16:04:46.823Z,16.43
2019-05-21T16:07:19.783Z,16.48
2019-05-21T16:09:50.925Z,16.37
2019-05-21T16:12:22.897Z,16.42
2019-05-21T16:14:54.173Z,16.41
2019-05-21T16:17:25.121Z,16.52
2019-05-21T16:20:02.089Z,16.58
2019-05-21T16:22:33.689Z,16.54
2019-05-21T16:25:05.076Z,16.43
2019-05-21T16:27:35.751Z,16.43
2019-05-21T16:30:08.053Z,16.40
2019-05-21T16:32:41.010Z,16.44
2019-05-21T16:35:12.344Z,16.33
2019-05-21T16:37:43.254Z,16.27
2019-05-21T16:40:14.038Z,16.22
2019-05-21T16:42:44.568Z,16.25
2019-05-21T16:45:15.427Z,16.37
2019-05-21T16:47:46.782Z,16.47
2019-05-21T16:50:17.798Z,16.29
2019-05-21T16:52:48.489Z,16.31
2019-05-21T16:55:18.970Z,16.22
2019-05-21T16:57:49.497Z,16.24
2019-05-21T17:00:22.088Z,16.32
2019-05-21T17:02:52.578Z,16.26
2019-05-21T17:05:24.106Z,16.30
2019-05-21T17:07:54.573Z,16.26
2019-05-21T17:10:25.340Z,16.28
2019-05-21T17:12:55.847Z,16.26
2019-05-21T17:15:26.453Z,16.26
2019-05-21T17:17:56.933Z,16.22
2019-05-21T17:20:27.873Z,16.22
2019-05-21T17:22:58.617Z,16.16
2019-05-21T17:25:29.493Z,16.13
2019-05-21T17:28:00.202Z,16.11
2019-05-21T17:30:32.290Z,16.07
2019-05-21T17:33:04.126Z,16.04
2019-05-21T17:35:35.363Z,16.00
2019-05-21T17:38:06.491Z,16.07
2019-05-21T17:40:37.207Z,16.06
2019-05-21T17:43:07.967Z,16.07
2019-05-21T17:45:38.729Z,16.09
2019-05-21T17:48:09.640Z,16.08
2019-05-21T17:50:40.373Z,16.09
2019-05-21T17:53:11.466Z,16.04
2019-05-21T17:55:42.558Z,16.07
2019-05-21T17:58:13.661Z,16.08
2019-05-21T18:00:50.681Z,16.08
2019-05-21T18:03:21.631Z,16.06
2019-05-21T18:05:52.636Z,16.10
2019-05-21T18:08:23.772Z,16.08
2019-05-21T18:10:54.859Z,15.98
2019-05-21T18:13:25.932Z,16.02
2019-05-21T18:15:57.706Z,16.00
2019-05-21T18:18:28.967Z,16.01
2019-05-21T18:21:00.038Z,16.03
2019-05-21T18:23:31.215Z,16.01
2019-05-21T18:26:02.281Z,15.92
2019-05-21T18:28:33.197Z,15.89
2019-05-21T18:31:05.332Z,15.84
2019-05-21T18:33:36.345Z,15.87
2019-05-21T18:36:07.460Z,15.85
2019-05-21T18:38:38.778Z,15.85
2019-05-21T18:41:09.793Z,15.83
2019-05-21T18:43:40.532Z,15.78
2019-05-21T18:46:11.451Z,15.73
2019-05-21T18:48:42.250Z,15.70
2019-05-21T18:51:13.792Z,15.66
2019-05-21T18:53:44.628Z,15.69
2019-05-21T18:56:16.672Z,15.65
2019-05-21T18:58:47.189Z,15.63
2019-05-21T19:01:17.762Z,15.67
2019-05-21T19:03:48.284Z,15.61
2019-05-21T19:06:18.885Z,15.57
2019-05-21T19:08:49.509Z,15.53
2019-05-21T19:11:20.254Z,15.57
2019-05-21T19:13:50.817Z,15.51
2019-05-21T19:16:21.341Z,15.53
2019-05-21T19:18:51.844Z,15.58
2019-05-21T19:21:22.366Z,15.59
2019-05-21T19:23:53.200Z,15.50
2019-05-21T19:26:24.972Z,15.55
2019-05-21T19:28:55.962Z,15.61
2019-05-21T19:31:27.365Z,15.62
2019-05-21T19:33:58.594Z,15.51
2019-05-21T19:36:29.740Z,15.55
2019-05-21T19:39:00.562Z,15.45
2019-05-21T19:41:33.046Z,15.41
2019-05-21T19:44:04.262Z,15.41
2019-05-21T19:46:34.997Z,15.50
2019-05-21T19:49:05.971Z,15.41
2019-05-21T19:51:36.797Z,15.44
2019-05-21T19:54:07.873Z,15.44
2019-05-21T19:56:39.494Z,15.48
2019-05-21T19:59:10.361Z,15.47
2019-05-21T20:01:41.651Z,15.52
2019-05-21T20:04:14.338Z,15.42
2019-05-21T20:06:45.400Z,15.41
2019-05-21T20:09:17.575Z,15.32
2019-05-21T20:11:48.413Z,15.30
2019-05-21T20:14:19.705Z,15.36
2019-05-21T20:16:51.009Z,15.37
2019-05-21T20:19:23.120Z,15.40
2019-05-21T20:21:54.388Z,15.39
2019-05-21T20:24:25.548Z,15.40
2019-05-21T20:26:56.495Z,15.42
2019-05-21T20:29:27.542Z,15.32
2019-05-21T20:31:58.612Z,15.27
2019-05-21T20:34:29.801Z,15.28
2019-05-21T20:37:00.657Z,15.29
2019-05-21T20:39:33.213Z,15.30
2019-05-21T20:42:05.658Z,15.35
2019-05-21T20:44:36.334Z,15.41
2019-05-21T20:47:09.280Z,15.39
2019-05-21T20:49:39.751Z,15.39
2019-05-21T20:52:18.586Z,15.38
2019-05-21T20:54:46.440Z,15.35
2019-05-21T20:57:17.718Z,15.35
2019-05-21T20:59:48.334Z,15.35
2019-05-21T21:02:18.823Z,15.34
2019-05-21T21:04:49.910Z,15.21
2019-05-21T21:07:20.814Z,15.13
2019-05-21T21:09:51.965Z,15.16
2019-05-21T21:12:23.378Z,15.24
2019-05-21T21:14:54.747Z,15.23
2019-05-21T21:17:26.383Z,15.23
2019-05-21T21:19:57.247Z,15.31
2019-05-21T21:22:28.109Z,15.32
2019-05-21T21:24:59.033Z,15.32
2019-05-21T21:27:31.206Z,15.28
2019-05-21T21:30:02.157Z,15.27
2019-05-21T21:32:34.472Z,15.24
2019-05-21T21:35:05.825Z,15.24
2019-05-21T21:37:36.622Z,15.26
2019-05-21T21:40:12.089Z,15.25
2019-05-21T21:42:43.901Z,15.28
2019-05-21T21:45:14.967Z,15.29
2019-05-21T21:47:45.822Z,15.23
2019-05-21T21:50:18.760Z,15.28
2019-05-21T21:52:50.096Z,15.31
2019-05-21T21:55:20.858Z,15.34
2019-05-21T21:57:51.585Z,15.35
2019-05-21T22:01:20.055Z,15.29
2019-05-21T22:03:51.592Z,15.31
2019-05-21T22:06:23.807Z,15.40
2019-05-21T22:08:54.742Z,15.39
2019-05-21T22:11:26.353Z,15.30
2019-05-21T22:13:57.209Z,15.36
2019-05-21T22:16:28.410Z,15.21
2019-05-21T22:18:59.253Z,15.25
2019-05-21T22:21:30.002Z,15.29
2019-05-21T22:24:00.521Z,15.25
2019-05-21T22:26:31.297Z,15.22
2019-05-21T22:29:01.773Z,15.29
2019-05-21T22:31:32.262Z,15.26
2019-05-21T22:34:02.813Z,15.21
2019-05-21T22:36:33.492Z,15.24
2019-05-21T22:39:06.844Z,15.18
2019-05-21T22:41:37.347Z,15.18
2019-05-21T22:44:08.996Z,15.18
2019-05-21T22:46:40.045Z,15.20
2019-05-21T22:49:11.053Z,15.21
2019-05-21T22:51:41.808Z,15.08
2019-05-21T22:54:12.633Z,15.06
2019-05-21T22:56:43.698Z,14.89
2019-05-21T22:59:14.705Z,15.00
2019-05-21T23:01:45.612Z,15.08
2019-05-21T23:04:16.563Z,15.07
2019-05-21T23:06:49.039Z,15.05
2019-05-21T23:09:19.995Z,15.03
2019-05-21T23:11:50.895Z,15.11
2019-05-21T23:14:22.064Z,14.98
2019-05-21T23:16:54.254Z,14.94
2019-05-21T23:19:28.088Z,14.92
2019-05-21T23:22:03.420Z,14.94
2019-05-21T23:24:34.675Z,14.96
2019-05-21T23:27:07.137Z,14.90
2019-05-21T23:29:39.252Z,14.90
2019-05-21T23:32:10.255Z,14.84
2019-05-21T23:34:40.907Z,14.84
2019-05-21T23:37:18.019Z,14.87
2019-05-21T23:39:50.192Z,14.85
2019-05-21T23:42:28.996Z,14.83
2019-05-21T23:44:53.274Z,14.66
2019-05-21T23:47:24.146Z,14.49
2019-05-21T23:49:54.916Z,14.42
2019-05-21T23:52:26.475Z,14.49
2019-05-21T23:54:56.944Z,14.58
2019-05-21T23:57:32.724Z,14.70
